createdAt,value
2023-05-04T00:00:29.257Z,16.31
2023-05-04T00:02:55.663Z,16.30
2023-05-04T00:05:21.883Z,16.30
2023-05-04T00:07:47.980Z,16.29
2023-05-04T00:10:14.078Z,16.29
2023-05-04T00:12:40.203Z,16.29
2023-05-04T00:15:06.300Z,16.29
2023-05-04T00:17:32.417Z,16.29
2023-05-04T00:19:58.607Z,16.28
2023-05-04T00:22:24.700Z,16.29
2023-05-04T00:24:50.799Z,16.29
2023-05-04T00:27:16.925Z,16.28
2023-05-04T00:29:43.029Z,16.27
2023-05-04T00:32:09.137Z,16.27
2023-05-04T00:34:35.237Z,16.27
2023-05-04T00:37:01.366Z,16.28
2023-05-04T00:39:27.470Z,16.27
2023-05-04T00:41:53.589Z,16.26
2023-05-04T00:44:19.684Z,16.26
2023-05-04T00:46:45.832Z,16.26
2023-05-04T00:49:11.989Z,16.26
2023-05-04T00:51:38.088Z,16.27
2023-05-04T00:54:04.272Z,16.26
2023-05-04T00:56:30.524Z,16.26
2023-05-04T00:58:56.630Z,16.26
2023-05-04T01:01:22.756Z,16.25
2023-05-04T01:03:48.964Z,16.25
2023-05-04T01:06:15.091Z,16.25
2023-05-04T01:08:41.188Z,16.24
2023-05-04T01:11:07.971Z,16.24
2023-05-04T01:13:34.073Z,16.24
2023-05-04T01:16:00.180Z,16.23
2023-05-04T01:18:26.296Z,16.23
2023-05-04T01:20:52.389Z,16.23
2023-05-04T01:23:18.501Z,16.23
2023-05-04T01:25:44.623Z,16.22
2023-05-04T01:28:10.712Z,16.22
2023-05-04T01:30:36.850Z,16.23
2023-05-04T01:33:03.043Z,16.21
2023-05-04T01:35:29.223Z,16.23
2023-05-04T01:37:55.326Z,16.22
2023-05-04T01:40:21.428Z,16.21
2023-05-04T01:42:47.513Z,16.22
2023-05-04T01:45:13.613Z,16.22
2023-05-04T01:47:39.772Z,16.22
2023-05-04T01:50:06.225Z,16.21
2023-05-04T01:52:32.494Z,16.21
2023-05-04T01:54:58.621Z,16.21
2023-05-04T01:57:24.712Z,16.20
2023-05-04T01:59:50.812Z,16.20
2023-05-04T02:02:16.938Z,16.20
2023-05-04T02:04:43.033Z,16.19
2023-05-04T02:07:09.117Z,16.20
2023-05-04T02:09:35.258Z,16.19
2023-05-04T02:12:01.368Z,16.19
2023-05-04T02:14:27.467Z,16.18
2023-05-04T02:16:53.643Z,16.19
2023-05-04T02:19:19.744Z,16.17
2023-05-04T02:21:45.839Z,16.18
2023-05-04T02:24:11.950Z,16.18
2023-05-04T02:26:38.052Z,16.17
2023-05-04T02:29:04.146Z,16.18
2023-05-04T02:31:30.280Z,16.17
2023-05-04T02:33:56.392Z,16.16
2023-05-04T02:36:22.497Z,16.16
2023-05-04T02:38:48.595Z,16.16
2023-05-04T02:41:14.677Z,16.15
2023-05-04T02:43:40.780Z,16.16
2023-05-04T02:46:06.925Z,16.15
2023-05-04T02:48:33.085Z,16.16
2023-05-04T02:50:59.188Z,16.16
2023-05-04T02:53:25.302Z,16.16
2023-05-04T02:55:51.404Z,16.16
2023-05-04T02:58:17.517Z,16.15
2023-05-04T03:00:43.683Z,16.14
2023-05-04T03:03:09.796Z,16.14
2023-05-04T03:05:35.900Z,16.15
2023-05-04T03:08:02.014Z,16.15
2023-05-04T03:10:28.109Z,16.14
2023-05-04T03:12:54.310Z,16.13
2023-05-04T03:15:20.781Z,16.13
2023-05-04T03:17:46.961Z,16.13
2023-05-04T03:20:13.093Z,16.14
2023-05-04T03:22:39.205Z,16.13
2023-05-04T03:25:05.323Z,16.13
2023-05-04T03:27:31.418Z,16.11
2023-05-04T03:29:57.533Z,16.12
2023-05-04T03:32:23.610Z,16.12
2023-05-04T03:34:49.704Z,16.11
2023-05-04T03:37:15.813Z,16.11
2023-05-04T03:39:41.895Z,16.12
2023-05-04T03:42:07.988Z,16.11
2023-05-04T03:44:34.108Z,16.11
2023-05-04T03:47:00.227Z,16.09
2023-05-04T03:49:26.318Z,16.11
2023-05-04T03:51:52.418Z,16.10
2023-05-04T03:54:18.572Z,16.10
2023-05-04T03:56:44.662Z,16.10
2023-05-04T03:59:10.769Z,16.08
2023-05-04T04:01:36.867Z,16.09
2023-05-04T04:04:03.048Z,16.08
2023-05-04T04:06:29.383Z,16.08
2023-05-04T04:08:55.483Z,16.08
2023-05-04T04:11:21.587Z,16.08
2023-05-04T04:13:47.695Z,16.06
2023-05-04T04:16:13.837Z,16.07
2023-05-04T04:18:39.982Z,16.07
2023-05-04T04:21:06.535Z,16.07
2023-05-04T04:23:32.668Z,16.06
2023-05-04T04:25:58.771Z,16.05
2023-05-04T04:28:24.888Z,16.06
2023-05-04T04:30:50.979Z,16.07
2023-05-04T04:33:17.112Z,16.06
2023-05-04T04:35:43.236Z,16.06
2023-05-04T04:38:09.335Z,16.06
2023-05-04T04:40:35.423Z,16.06
2023-05-04T04:43:01.538Z,16.04
2023-05-04T04:45:27.666Z,16.05
2023-05-04T04:47:53.821Z,16.05
2023-05-04T04:50:20.024Z,16.06
2023-05-04T04:52:46.134Z,16.06
2023-05-04T04:55:12.244Z,16.06
2023-05-04T04:57:38.345Z,16.05
2023-05-04T05:00:04.755Z,16.04
2023-05-04T05:02:31.096Z,16.05
2023-05-04T05:04:57.231Z,16.04
2023-05-04T05:07:23.392Z,16.04
2023-05-04T05:09:49.483Z,16.03
2023-05-04T05:12:15.603Z,16.04
2023-05-04T05:14:41.684Z,16.05
2023-05-04T05:17:07.857Z,16.04
2023-05-04T05:19:33.983Z,16.04
2023-05-04T05:22:00.090Z,16.04
2023-05-04T05:24:26.264Z,16.03
2023-05-04T05:26:52.498Z,16.03
2023-05-04T05:29:18.622Z,16.03
2023-05-04T05:31:44.722Z,16.03
2023-05-04T05:34:10.821Z,16.03
2023-05-04T05:36:36.940Z,16.02
2023-05-04T05:39:03.028Z,16.04
2023-05-04T05:41:29.184Z,16.03
2023-05-04T05:43:55.331Z,16.02
2023-05-04T05:46:21.445Z,16.03
2023-05-04T05:48:47.600Z,16.03
2023-05-04T05:51:13.715Z,16.02
2023-05-04T05:53:39.812Z,16.02
2023-05-04T05:56:06.482Z,16.02
2023-05-04T05:58:32.587Z,16.03
2023-05-04T06:00:58.715Z,16.03
2023-05-04T06:03:25.012Z,16.02
2023-05-04T06:05:51.254Z,16.02
2023-05-04T06:08:17.347Z,16.02
2023-05-04T06:10:43.453Z,16.02
2023-05-04T06:13:09.621Z,16.02
2023-05-04T06:15:35.803Z,16.01
2023-05-04T06:18:02.015Z,16.01
2023-05-04T06:20:28.207Z,16.02
2023-05-04T06:22:54.310Z,16.02
2023-05-04T06:25:20.917Z,16.02
2023-05-04T06:27:47.008Z,16.02
2023-05-04T06:30:13.120Z,16.02
2023-05-04T06:32:39.303Z,16.03
2023-05-04T06:35:05.461Z,16.03
2023-05-04T06:37:31.554Z,16.02
2023-05-04T06:39:57.712Z,16.03
2023-05-04T06:42:23.808Z,16.02
2023-05-04T06:44:49.908Z,16.02
2023-05-04T06:47:16.011Z,16.02
2023-05-04T06:49:42.119Z,16.02
2023-05-04T06:52:08.214Z,16.03
2023-05-04T06:54:34.338Z,16.03
2023-05-04T06:57:00.433Z,16.02
2023-05-04T06:59:26.524Z,16.02
2023-05-04T07:01:52.634Z,16.03
2023-05-04T07:04:18.745Z,16.03
2023-05-04T07:06:44.859Z,16.02
2023-05-04T07:09:11.002Z,16.03
2023-05-04T07:11:37.090Z,16.03
2023-05-04T07:14:03.183Z,16.03
2023-05-04T07:16:29.332Z,16.03
2023-05-04T07:18:55.436Z,16.03
2023-05-04T07:21:28.358Z,16.03
2023-05-04T07:23:55.445Z,16.03
2023-05-04T07:26:21.558Z,16.03
2023-05-04T07:28:47.666Z,16.03
2023-05-04T07:31:14.058Z,16.04
2023-05-04T07:33:40.246Z,16.03
2023-05-04T07:36:06.348Z,16.04
2023-05-04T07:38:32.454Z,16.04
2023-05-04T07:40:58.570Z,16.03
2023-05-04T07:43:24.659Z,16.04
2023-05-04T07:45:50.849Z,16.05
2023-05-04T07:48:18.091Z,16.05
2023-05-04T07:50:44.454Z,16.04
2023-05-04T07:53:10.602Z,16.04
2023-05-04T07:55:36.781Z,16.05
2023-05-04T07:58:02.875Z,16.06
2023-05-04T08:00:28.989Z,16.05
2023-05-04T08:02:55.142Z,16.06
2023-05-04T08:05:21.312Z,16.05
2023-05-04T08:07:47.453Z,16.06
2023-05-04T08:10:13.566Z,16.07
2023-05-04T08:12:39.688Z,16.07
2023-05-04T08:15:06.454Z,16.07
2023-05-04T08:17:32.708Z,16.06
2023-05-04T08:19:58.834Z,16.08
2023-05-04T08:22:24.958Z,16.07
2023-05-04T08:24:51.074Z,16.07
2023-05-04T08:27:17.203Z,16.08
2023-05-04T08:29:43.334Z,16.08
2023-05-04T08:32:09.477Z,16.08
2023-05-04T08:34:35.628Z,16.09
2023-05-04T08:37:02.261Z,16.08
2023-05-04T08:39:28.392Z,16.09
2023-05-04T08:41:54.515Z,16.10
2023-05-04T08:44:20.626Z,16.09
2023-05-04T08:46:46.745Z,16.09
2023-05-04T08:49:12.908Z,16.09
2023-05-04T08:51:39.037Z,16.10
2023-05-04T08:54:05.139Z,16.11
2023-05-04T08:56:31.268Z,16.11
2023-05-04T08:58:57.390Z,16.11
2023-05-04T09:01:23.581Z,16.11
2023-05-04T09:03:49.980Z,16.12
2023-05-04T09:06:16.291Z,16.12
2023-05-04T09:08:42.410Z,16.12
2023-05-04T09:11:08.525Z,16.14
2023-05-04T09:13:34.654Z,16.14
2023-05-04T09:16:00.774Z,16.13
2023-05-04T09:18:26.904Z,16.13
2023-05-04T09:20:53.056Z,16.14
2023-05-04T09:23:19.174Z,16.15
2023-05-04T09:25:45.298Z,16.15
2023-05-04T09:28:11.422Z,16.16
2023-05-04T09:30:37.523Z,16.16
2023-05-04T09:33:03.847Z,16.16
2023-05-04T09:35:33.714Z,16.16
2023-05-04T09:38:00.534Z,16.16
2023-05-04T09:40:26.651Z,16.17
2023-05-04T09:42:52.774Z,16.17
2023-05-04T09:45:18.864Z,16.18
2023-05-04T09:47:45.011Z,16.19
2023-05-04T09:50:11.131Z,16.18
2023-05-04T09:52:37.236Z,16.19
2023-05-04T09:55:03.526Z,16.18
2023-05-04T09:57:29.772Z,16.19
2023-05-04T09:59:55.856Z,16.20
2023-05-04T10:02:23.406Z,16.19
2023-05-04T10:04:49.739Z,16.22
2023-05-04T10:07:15.837Z,16.21
2023-05-04T10:09:42.024Z,16.21
2023-05-04T10:12:08.149Z,16.22
2023-05-04T10:14:34.257Z,16.22
2023-05-04T10:17:00.368Z,16.23
2023-05-04T10:19:26.476Z,16.23
2023-05-04T10:21:52.569Z,16.23
2023-05-04T10:24:18.678Z,16.24
2023-05-04T10:26:44.797Z,16.24
2023-05-04T10:29:10.950Z,16.26
2023-05-04T10:31:37.097Z,16.25
2023-05-04T10:34:03.239Z,16.26
2023-05-04T10:36:29.386Z,16.27
2023-05-04T10:38:55.487Z,16.27
2023-05-04T10:41:22.098Z,16.28
2023-05-04T10:43:48.199Z,16.28
2023-05-04T10:46:14.386Z,16.27
2023-05-04T10:48:40.581Z,16.29
2023-05-04T10:51:06.696Z,16.29
2023-05-04T10:53:32.806Z,16.30
2023-05-04T10:55:58.930Z,16.31
2023-05-04T10:58:25.017Z,16.32
2023-05-04T11:00:51.137Z,16.32
2023-05-04T11:03:17.426Z,16.33
2023-05-04T11:05:43.615Z,16.33
2023-05-04T11:08:09.706Z,16.34
2023-05-04T11:10:35.803Z,16.34
2023-05-04T11:13:04.085Z,16.35
2023-05-04T11:15:31.609Z,16.35
2023-05-04T11:17:57.768Z,16.36
2023-05-04T11:20:23.940Z,16.37
2023-05-04T11:22:50.046Z,16.37
2023-05-04T11:25:16.678Z,16.37
2023-05-04T11:27:42.831Z,16.38
2023-05-04T11:30:08.959Z,16.39
2023-05-04T11:32:35.138Z,16.39
2023-05-04T11:35:01.294Z,16.40
2023-05-04T11:37:27.660Z,16.40
2023-05-04T11:39:53.783Z,16.41
2023-05-04T11:42:19.876Z,16.42
2023-05-04T11:44:45.980Z,16.43
2023-05-04T11:47:12.255Z,16.44
2023-05-04T11:49:38.372Z,16.44
2023-05-04T11:52:04.490Z,16.45
2023-05-04T11:54:30.638Z,16.45
2023-05-04T11:56:56.733Z,16.46
2023-05-04T11:59:22.837Z,16.47
2023-05-04T12:01:48.958Z,16.48
2023-05-04T12:04:15.175Z,16.48
2023-05-04T12:06:41.336Z,16.49
2023-05-04T12:09:07.493Z,16.49
2023-05-04T12:11:33.628Z,16.51
2023-05-04T12:13:59.739Z,16.52
2023-05-04T12:16:25.911Z,16.52
2023-05-04T12:18:52.019Z,16.52
2023-05-04T12:21:18.111Z,16.55
2023-05-04T12:23:44.251Z,16.54
2023-05-04T12:26:10.368Z,16.55
2023-05-04T12:28:36.534Z,16.56
2023-05-04T12:31:02.663Z,16.56
2023-05-04T12:33:28.760Z,16.58
2023-05-04T12:35:54.854Z,16.58
2023-05-04T12:38:20.974Z,16.59
2023-05-04T12:40:47.074Z,16.59
2023-05-04T12:43:13.165Z,16.61
2023-05-04T12:45:39.300Z,16.63
2023-05-04T12:48:05.517Z,16.63
2023-05-04T12:50:31.660Z,16.64
2023-05-04T12:52:57.798Z,16.64
2023-05-04T12:55:25.444Z,16.65
2023-05-04T12:57:51.787Z,16.67
2023-05-04T13:00:17.891Z,16.66
2023-05-04T13:02:44.055Z,16.67
2023-05-04T13:05:10.196Z,16.68
2023-05-04T13:07:36.328Z,16.70
2023-05-04T13:10:02.434Z,16.69
2023-05-04T13:12:28.577Z,16.70
2023-05-04T13:14:54.742Z,16.71
2023-05-04T13:17:20.847Z,16.73
2023-05-04T13:19:46.935Z,16.72
2023-05-04T13:22:13.047Z,16.75
2023-05-04T13:24:39.147Z,16.75
2023-05-04T13:27:05.245Z,16.76
2023-05-04T13:29:31.350Z,16.78
2023-05-04T13:31:57.481Z,16.78
2023-05-04T13:34:23.615Z,16.80
2023-05-04T13:36:49.732Z,16.80
2023-05-04T13:39:15.850Z,16.81
2023-05-04T13:41:41.974Z,16.82
2023-05-04T13:44:08.093Z,16.83
2023-05-04T13:46:34.246Z,16.83
2023-05-04T13:49:00.378Z,16.85
2023-05-04T13:51:26.627Z,16.86
2023-05-04T13:53:52.718Z,16.87
2023-05-04T13:56:18.823Z,16.88
2023-05-04T13:58:44.941Z,16.89
2023-05-04T14:01:11.050Z,16.90
2023-05-04T14:03:37.164Z,16.91
2023-05-04T14:06:03.274Z,16.92
2023-05-04T14:08:29.361Z,16.93
2023-05-04T14:10:55.465Z,16.93
2023-05-04T14:13:21.597Z,16.95
2023-05-04T14:15:47.691Z,16.96
2023-05-04T14:18:13.808Z,16.97
2023-05-04T14:20:39.955Z,16.97
2023-05-04T14:23:06.116Z,16.97
2023-05-04T14:25:32.214Z,16.99
2023-05-04T14:27:58.355Z,17.00
2023-05-04T14:30:24.450Z,17.01
2023-05-04T14:32:50.598Z,17.02
2023-05-04T14:35:16.802Z,17.02
2023-05-04T14:37:42.912Z,17.03
2023-05-04T14:40:09.390Z,17.05
2023-05-04T14:42:35.981Z,17.05
2023-05-04T14:45:02.369Z,17.06
2023-05-04T14:47:28.660Z,17.09
2023-05-04T14:49:54.986Z,17.08
2023-05-04T14:52:21.423Z,17.11
2023-05-04T14:54:47.534Z,17.12
2023-05-04T14:57:13.787Z,17.11
2023-05-04T14:59:39.890Z,17.13
2023-05-04T15:02:05.978Z,17.13
2023-05-04T15:04:32.129Z,17.14
2023-05-04T15:06:58.253Z,17.15
2023-05-04T15:09:24.365Z,17.16
2023-05-04T15:11:50.477Z,17.18
2023-05-04T15:14:16.603Z,17.18
2023-05-04T15:16:42.711Z,17.20
2023-05-04T15:19:08.834Z,17.21
2023-05-04T15:21:34.933Z,17.23
2023-05-04T15:24:01.065Z,17.22
2023-05-04T15:26:27.198Z,17.23
2023-05-04T15:28:54.213Z,17.23
2023-05-04T15:31:20.493Z,17.25
2023-05-04T15:33:46.619Z,17.25
2023-05-04T15:36:12.707Z,17.26
2023-05-04T15:38:38.808Z,17.27
2023-05-04T15:41:04.921Z,17.28
2023-05-04T15:43:31.015Z,17.29
2023-05-04T15:45:57.107Z,17.30
2023-05-04T15:48:23.221Z,17.30
2023-05-04T15:50:49.313Z,17.31
2023-05-04T15:53:15.427Z,17.33
2023-05-04T15:55:41.576Z,17.33
2023-05-04T15:58:07.686Z,17.33
2023-05-04T16:00:33.797Z,17.35
2023-05-04T16:02:59.980Z,17.35
2023-05-04T16:05:26.178Z,17.36
2023-05-04T16:07:52.303Z,17.37
2023-05-04T16:10:18.433Z,17.38
2023-05-04T16:12:44.560Z,17.38
2023-05-04T16:15:10.672Z,17.40
2023-05-04T16:17:36.804Z,17.40
2023-05-04T16:20:02.946Z,17.42
2023-05-04T16:22:29.055Z,17.41
2023-05-04T16:24:55.175Z,17.42
2023-05-04T16:27:21.304Z,17.43
2023-05-04T16:29:47.413Z,17.44
2023-05-04T16:32:13.541Z,17.45
2023-05-04T16:34:39.632Z,17.46
2023-05-04T16:37:05.731Z,17.46
2023-05-04T16:39:31.896Z,17.47
2023-05-04T16:41:58.043Z,17.47
2023-05-04T16:44:24.131Z,17.49
2023-05-04T16:46:50.240Z,17.49
2023-05-04T16:49:16.351Z,17.49
2023-05-04T16:51:42.451Z,17.50
2023-05-04T16:54:08.576Z,17.51
2023-05-04T16:56:34.667Z,17.52
2023-05-04T16:59:01.233Z,17.52
2023-05-04T17:01:27.461Z,17.53
2023-05-04T17:03:53.669Z,17.53
2023-05-04T17:06:21.697Z,17.54
2023-05-04T17:08:47.802Z,17.55
2023-05-04T17:11:13.900Z,17.55
2023-05-04T17:13:40.071Z,17.55
2023-05-04T17:16:06.297Z,17.56
2023-05-04T17:18:32.434Z,17.57
2023-05-04T17:20:58.535Z,17.57
2023-05-04T17:23:24.660Z,17.56
2023-05-04T17:25:50.767Z,17.58
2023-05-04T17:28:16.865Z,17.58
2023-05-04T17:30:42.979Z,17.58
2023-05-04T17:33:09.213Z,17.60
2023-05-04T17:35:35.350Z,17.60
2023-05-04T17:38:01.478Z,17.61
2023-05-04T17:40:28.114Z,17.62
2023-05-04T17:42:54.578Z,17.63
2023-05-04T17:45:20.689Z,17.64
2023-05-04T17:47:46.846Z,17.63
2023-05-04T17:50:12.982Z,17.62
2023-05-04T17:52:39.094Z,17.63
2023-05-04T17:55:05.184Z,17.65
2023-05-04T17:57:31.280Z,17.66
2023-05-04T17:59:57.402Z,17.65
2023-05-04T18:02:23.565Z,17.65
2023-05-04T18:04:49.759Z,17.66
2023-05-04T18:07:16.344Z,17.66
2023-05-04T18:09:42.447Z,17.67
2023-05-04T18:12:08.551Z,17.68
2023-05-04T18:14:34.678Z,17.66
2023-05-04T18:17:00.886Z,17.66
2023-05-04T18:19:27.000Z,17.68
2023-05-04T18:21:53.117Z,17.68
2023-05-04T18:24:19.201Z,17.70
2023-05-04T18:26:45.288Z,17.70
2023-05-04T18:29:18.968Z,17.69
2023-05-04T18:31:45.863Z,17.70
2023-05-04T18:34:12.029Z,17.69
2023-05-04T18:36:38.177Z,17.70
2023-05-04T18:39:04.268Z,17.70
2023-05-04T18:41:30.372Z,17.71
2023-05-04T18:43:56.656Z,17.70
2023-05-04T18:46:22.851Z,17.71
2023-05-04T18:48:49.041Z,17.71
2023-05-04T18:51:15.144Z,17.71
2023-05-04T18:53:41.268Z,17.72
2023-05-04T18:56:07.390Z,17.72
2023-05-04T18:58:33.504Z,17.71
2023-05-04T19:00:59.633Z,17.72
2023-05-04T19:03:25.902Z,17.72
2023-05-04T19:05:52.067Z,17.73
2023-05-04T19:08:18.165Z,17.72
2023-05-04T19:10:44.256Z,17.73
2023-05-04T19:13:10.452Z,17.74
2023-05-04T19:15:36.713Z,17.73
2023-05-04T19:18:02.863Z,17.74
2023-05-04T19:20:28.991Z,17.73
2023-05-04T19:22:55.083Z,17.73
2023-05-04T19:25:33.610Z,17.74
2023-05-04T19:28:00.852Z,17.73
2023-05-04T19:30:26.956Z,17.73
2023-05-04T19:32:53.066Z,17.74
2023-05-04T19:35:19.228Z,17.74
2023-05-04T19:37:45.337Z,17.74
2023-05-04T19:40:11.426Z,17.75
2023-05-04T19:42:37.531Z,17.74
2023-05-04T19:45:03.633Z,17.76
2023-05-04T19:47:29.750Z,17.75
2023-05-04T19:49:55.899Z,17.74
2023-05-04T19:52:21.996Z,17.74
2023-05-04T19:54:48.111Z,17.74
2023-05-04T19:57:14.232Z,17.74
2023-05-04T19:59:40.327Z,17.74
2023-05-04T20:02:06.703Z,17.73
2023-05-04T20:04:32.898Z,17.76
2023-05-04T20:06:59.009Z,17.74
2023-05-04T20:09:25.111Z,17.74
2023-05-04T20:11:51.716Z,17.75
2023-05-04T20:14:17.812Z,17.74
2023-05-04T20:16:43.936Z,17.73
2023-05-04T20:19:10.095Z,17.74
2023-05-04T20:21:36.246Z,17.75
2023-05-04T20:24:02.447Z,17.76
2023-05-04T20:26:28.553Z,17.74
2023-05-04T20:28:54.642Z,17.74
2023-05-04T20:31:20.742Z,17.74
2023-05-04T20:33:46.964Z,17.74
2023-05-04T20:36:13.075Z,17.75
2023-05-04T20:38:39.188Z,17.74
2023-05-04T20:41:05.661Z,17.74
2023-05-04T20:43:32.724Z,17.74
2023-05-04T20:45:58.905Z,17.74
2023-05-04T20:48:25.163Z,17.73
2023-05-04T20:50:57.097Z,17.74
2023-05-04T20:53:29.162Z,17.73
2023-05-04T20:55:55.242Z,17.74
2023-05-04T20:58:21.329Z,17.74
2023-05-04T21:00:47.449Z,17.73
2023-05-04T21:03:13.660Z,17.73
2023-05-04T21:05:39.847Z,17.74
2023-05-04T21:08:05.960Z,17.74
2023-05-04T21:10:32.071Z,17.73
2023-05-04T21:12:58.184Z,17.72
2023-05-04T21:15:24.382Z,17.73
2023-05-04T21:17:50.502Z,17.73
2023-05-04T21:20:16.614Z,17.71
2023-05-04T21:22:42.735Z,17.73
2023-05-04T21:25:08.823Z,17.72
2023-05-04T21:27:34.924Z,17.71
2023-05-04T21:30:01.037Z,17.72
2023-05-04T21:32:27.155Z,17.71
2023-05-04T21:34:53.260Z,17.71
2023-05-04T21:37:19.373Z,17.72
2023-05-04T21:39:45.470Z,17.71
2023-05-04T21:42:11.568Z,17.71
2023-05-04T21:44:37.694Z,17.71
2023-05-04T21:47:03.953Z,17.69
2023-05-04T21:49:30.118Z,17.70
2023-05-04T21:51:56.308Z,17.71
2023-05-04T21:54:22.412Z,17.69
2023-05-04T21:56:48.502Z,17.70
2023-05-04T21:59:14.608Z,17.71
2023-05-04T22:01:40.722Z,17.70
2023-05-04T22:04:06.861Z,17.70
2023-05-04T22:06:33.016Z,17.69
2023-05-04T22:08:59.108Z,17.70
2023-05-04T22:11:25.207Z,17.68
2023-05-04T22:13:51.310Z,17.69
2023-05-04T22:16:17.438Z,17.69
2023-05-04T22:18:43.538Z,17.69
2023-05-04T22:21:09.633Z,17.68
2023-05-04T22:23:35.756Z,17.68
2023-05-04T22:26:01.858Z,17.67
2023-05-04T22:28:27.969Z,17.70
2023-05-04T22:30:54.139Z,17.68
2023-05-04T22:33:20.241Z,17.68
2023-05-04T22:35:46.363Z,17.68
2023-05-04T22:38:12.463Z,17.69
2023-05-04T22:40:40.130Z,17.67
2023-05-04T22:43:06.673Z,17.68
2023-05-04T22:45:32.771Z,17.68
2023-05-04T22:47:58.934Z,17.67
2023-05-04T22:50:25.113Z,17.67
2023-05-04T22:52:51.237Z,17.66
2023-05-04T22:55:17.440Z,17.67
2023-05-04T22:57:43.632Z,17.66
2023-05-04T23:00:10.185Z,17.66
2023-05-04T23:02:36.809Z,17.66
2023-05-04T23:05:03.014Z,17.66
2023-05-04T23:07:29.135Z,17.65
2023-05-04T23:09:55.227Z,17.66
2023-05-04T23:12:21.339Z,17.66
2023-05-04T23:14:47.448Z,17.65
2023-05-04T23:17:13.892Z,17.65
2023-05-04T23:19:40.137Z,17.66
2023-05-04T23:22:06.274Z,17.66
2023-05-04T23:24:32.380Z,17.65
2023-05-04T23:26:58.530Z,17.65
2023-05-04T23:29:24.626Z,17.65
2023-05-04T23:31:50.824Z,17.64
2023-05-04T23:34:16.985Z,17.64
2023-05-04T23:36:43.097Z,17.64
2023-05-04T23:39:09.225Z,17.64
2023-05-04T23:41:35.345Z,17.64
2023-05-04T23:44:01.424Z,17.64
2023-05-04T23:46:27.536Z,17.64
2023-05-04T23:48:53.652Z,17.64
2023-05-04T23:51:19.764Z,17.63
2023-05-04T23:53:45.872Z,17.64
2023-05-04T23:56:12.385Z,17.64
2023-05-04T23:58:38.490Z,17.63
